sensor_id;sensor_type;location;lat;lon;timestamp;pressure;altitude;pressure_sealevel;temperature;humidity
25759;BME280;13604;52.496;13.456;2023-09-08T00:01:39;101806.09;;;16.87;90.94
25759;BME280;13604;52.496;13.456;2023-09-08T00:04:04;101818.47;;;16.90;91.25
25759;BME280;13604;52.496;13.456;2023-09-08T00:06:30;101818.41;;;16.88;90.68
25759;BME280;13604;52.496;13.456;2023-09-08T00:08:56;101807.38;;;16.74;92.25
25759;BME280;13604;52.496;13.456;2023-09-08T00:11:21;101803.81;;;16.74;91.76
25759;BME280;13604;52.496;13.456;2023-09-08T00:13:46;101761.75;;;16.50;91.71
25759;BME280;13604;52.496;13.456;2023-09-08T00:16:12;101810.06;;;16.76;92.26
25759;BME280;13604;52.496;13.456;2023-09-08T00:18:37;101800.97;;;16.68;92.53
25759;BME280;13604;52.496;13.456;2023-09-08T00:21:02;101795.72;;;16.68;91.98
25759;BME280;13604;52.496;13.456;2023-09-08T00:23:28;101802.03;;;16.73;92.78
25759;BME280;13604;52.496;13.456;2023-09-08T00:25:53;101796.09;;;16.79;92.05
25759;BME280;13604;52.496;13.456;2023-09-08T00:28:19;101779.09;;;16.69;92.25
25759;BME280;13604;52.496;13.456;2023-09-08T00:30:44;101776.34;;;16.66;91.70
25759;BME280;13604;52.496;13.456;2023-09-08T00:33:09;101777.84;;;16.59;92.70
25759;BME280;13604;52.496;13.456;2023-09-08T00:35:38;101788.78;;;16.70;92.48
25759;BME280;13604;52.496;13.456;2023-09-08T00:38:03;101785.13;;;16.66;91.97
25759;BME280;13604;52.496;13.456;2023-09-08T00:40:28;101794.91;;;16.70;92.09
25759;BME280;13604;52.496;13.456;2023-09-08T00:42:54;101793.97;;;16.68;92.20
25759;BME280;13604;52.496;13.456;2023-09-08T00:45:19;101782.91;;;16.53;92.45
25759;BME280;13604;52.496;13.456;2023-09-08T00:47:45;101775.41;;;16.41;93.08
25759;BME280;13604;52.496;13.456;2023-09-08T00:50:11;101791.31;;;16.44;92.97
25759;BME280;13604;52.496;13.456;2023-09-08T00:52:36;101795.88;;;16.48;93.72
25759;BME280;13604;52.496;13.456;2023-09-08T00:55:02;101773.41;;;16.34;93.34
25759;BME280;13604;52.496;13.456;2023-09-08T00:57:27;101785.00;;;16.39;92.93
25759;BME280;13604;52.496;13.456;2023-09-08T00:59:53;101776.94;;;16.34;92.93
25759;BME280;13604;52.496;13.456;2023-09-08T01:02:18;101758.97;;;16.23;93.18
25759;BME280;13604;52.496;13.456;2023-09-08T01:04:45;101797.19;;;16.37;94.55
25759;BME280;13604;52.496;13.456;2023-09-08T01:07:10;101791.81;;;16.34;94.78
25759;BME280;13604;52.496;13.456;2023-09-08T01:09:36;101783.88;;;16.32;94.66
25759;BME280;13604;52.496;13.456;2023-09-08T01:12:03;101794.31;;;16.31;94.35
25759;BME280;13604;52.496;13.456;2023-09-08T01:14:30;101800.38;;;16.28;95.63
25759;BME280;13604;52.496;13.456;2023-09-08T01:16:56;101795.88;;;16.26;95.90
25759;BME280;13604;52.496;13.456;2023-09-08T01:19:21;101790.50;;;16.23;95.76
25759;BME280;13604;52.496;13.456;2023-09-08T01:22:11;101790.69;;;16.27;95.83
25759;BME280;13604;52.496;13.456;2023-09-08T01:25:02;101790.75;;;16.29;95.06
25759;BME280;13604;52.496;13.456;2023-09-08T01:27:32;101783.56;;;16.25;95.23
25759;BME280;13604;52.496;13.456;2023-09-08T01:29:59;101769.91;;;16.11;95.44
25759;BME280;13604;52.496;13.456;2023-09-08T01:32:26;101783.22;;;16.15;96.40
25759;BME280;13604;52.496;13.456;2023-09-08T01:34:51;101781.47;;;16.16;95.89
25759;BME280;13604;52.496;13.456;2023-09-08T01:37:17;101785.91;;;16.17;95.75
25759;BME280;13604;52.496;13.456;2023-09-08T01:39:42;101764.47;;;16.06;96.20
25759;BME280;13604;52.496;13.456;2023-09-08T01:42:07;101774.09;;;16.06;96.58
25759;BME280;13604;52.496;13.456;2023-09-08T01:44:33;101783.81;;;16.08;97.46
25759;BME280;13604;52.496;13.456;2023-09-08T01:46:58;101781.91;;;16.04;97.89
25759;BME280;13604;52.496;13.456;2023-09-08T01:49:24;101779.03;;;15.98;97.86
25759;BME280;13604;52.496;13.456;2023-09-08T01:51:49;101762.00;;;15.88;98.26
25759;BME280;13604;52.496;13.456;2023-09-08T01:54:15;101783.47;;;15.99;98.98
25759;BME280;13604;52.496;13.456;2023-09-08T01:56:41;101780.72;;;15.96;99.06
25759;BME280;13604;52.496;13.456;2023-09-08T01:59:06;101780.59;;;15.93;99.07
25759;BME280;13604;52.496;13.456;2023-09-08T02:01:31;101787.50;;;15.91;99.38
25759;BME280;13604;52.496;13.456;2023-09-08T02:03:56;101708.94;;;15.53;99.57
25759;BME280;13604;52.496;13.456;2023-09-08T02:06:22;101750.16;;;15.77;99.85
25759;BME280;13604;52.496;13.456;2023-09-08T02:08:47;101738.38;;;15.67;99.56
25759;BME280;13604;52.496;13.456;2023-09-08T02:11:12;101763.56;;;15.83;99.40
25759;BME280;13604;52.496;13.456;2023-09-08T02:13:39;101776.69;;;15.83;100.00
25759;BME280;13604;52.496;13.456;2023-09-08T02:16:04;101748.88;;;15.67;100.00
25759;BME280;13604;52.496;13.456;2023-09-08T02:18:29;101747.66;;;15.59;100.00
25759;BME280;13604;52.496;13.456;2023-09-08T02:20:54;101765.69;;;15.71;100.00
25759;BME280;13604;52.496;13.456;2023-09-08T02:23:20;101746.66;;;15.55;100.00
25759;BME280;13604;52.496;13.456;2023-09-08T02:25:45;101762.59;;;15.60;100.00
25759;BME280;13604;52.496;13.456;2023-09-08T02:28:10;101764.28;;;15.58;100.00
25759;BME280;13604;52.496;13.456;2023-09-08T02:30:36;101768.53;;;15.56;100.00
25759;BME280;13604;52.496;13.456;2023-09-08T02:33:02;101729.81;;;15.29;100.00
25759;BME280;13604;52.496;13.456;2023-09-08T02:35:28;101755.59;;;15.38;100.00
25759;BME280;13604;52.496;13.456;2023-09-08T02:37:53;101752.03;;;15.37;100.00
25759;BME280;13604;52.496;13.456;2023-09-08T02:40:18;101755.59;;;15.38;100.00
25759;BME280;13604;52.496;13.456;2023-09-08T02:42:45;101765.94;;;15.35;100.00
25759;BME280;13604;52.496;13.456;2023-09-08T02:45:11;101758.06;;;15.35;100.00
25759;BME280;13604;52.496;13.456;2023-09-08T02:47:36;101740.84;;;15.20;100.00
25759;BME280;13604;52.496;13.456;2023-09-08T02:50:02;101739.19;;;15.22;100.00
25759;BME280;13604;52.496;13.456;2023-09-08T02:52:28;101733.56;;;15.13;100.00
25759;BME280;13604;52.496;13.456;2023-09-08T02:54:53;101759.34;;;15.23;100.00
25759;BME280;13604;52.496;13.456;2023-09-08T02:57:19;101731.63;;;15.09;100.00
25759;BME280;13604;52.496;13.456;2023-09-08T02:59:49;101754.84;;;15.21;100.00
25759;BME280;13604;52.496;13.456;2023-09-08T03:02:15;101736.94;;;15.11;100.00
25759;BME280;13604;52.496;13.456;2023-09-08T03:04:41;101747.69;;;15.17;100.00
25759;BME280;13604;52.496;13.456;2023-09-08T03:07:06;101742.38;;;15.15;100.00
25759;BME280;13604;52.496;13.456;2023-09-08T03:09:33;101726.88;;;15.00;100.00
25759;BME280;13604;52.496;13.456;2023-09-08T03:11:58;101727.13;;;15.06;100.00
25759;BME280;13604;52.496;13.456;2023-09-08T03:14:24;101719.84;;;14.99;100.00
25759;BME280;13604;52.496;13.456;2023-09-08T03:16:49;101733.59;;;15.15;100.00
25759;BME280;13604;52.496;13.456;2023-09-08T03:19:14;101739.75;;;15.15;100.00
25759;BME280;13604;52.496;13.456;2023-09-08T03:21:40;101720.66;;;14.98;100.00
25759;BME280;13604;52.496;13.456;2023-09-08T03:24:05;101734.19;;;15.07;100.00
25759;BME280;13604;52.496;13.456;2023-09-08T03:26:30;101726.03;;;15.01;100.00
25759;BME280;13604;52.496;13.456;2023-09-08T03:28:56;101686.97;;;14.67;100.00
25759;BME280;13604;52.496;13.456;2023-09-08T03:31:21;101740.81;;;14.99;100.00
25759;BME280;13604;52.496;13.456;2023-09-08T03:33:46;101745.78;;;14.93;100.00
25759;BME280;13604;52.496;13.456;2023-09-08T03:36:12;101723.28;;;14.77;100.00
25759;BME280;13604;52.496;13.456;2023-09-08T03:38:37;101747.41;;;14.89;100.00
25759;BME280;13604;52.496;13.456;2023-09-08T03:41:03;101734.72;;;14.79;100.00
25759;BME280;13604;52.496;13.456;2023-09-08T03:43:28;101754.91;;;14.82;100.00
25759;BME280;13604;52.496;13.456;2023-09-08T03:45:53;101750.25;;;14.75;100.00
25759;BME280;13604;52.496;13.456;2023-09-08T03:48:19;101756.44;;;14.77;100.00
25759;BME280;13604;52.496;13.456;2023-09-08T03:50:44;101755.28;;;14.70;100.00
25759;BME280;13604;52.496;13.456;2023-09-08T03:53:11;101728.59;;;14.59;100.00
25759;BME280;13604;52.496;13.456;2023-09-08T03:55:36;101741.94;;;14.64;100.00
25759;BME280;13604;52.496;13.456;2023-09-08T03:58:02;101757.75;;;14.67;100.00
25759;BME280;13604;52.496;13.456;2023-09-08T04:00:27;101734.28;;;14.50;100.00
25759;BME280;13604;52.496;13.456;2023-09-08T04:02:52;101759.34;;;14.63;100.00
25759;BME280;13604;52.496;13.456;2023-09-08T04:05:18;101742.28;;;14.53;100.00
25759;BME280;13604;52.496;13.456;2023-09-08T04:07:46;101721.72;;;14.43;100.00
25759;BME280;13604;52.496;13.456;2023-09-08T04:10:11;101755.69;;;14.60;100.00
25759;BME280;13604;52.496;13.456;2023-09-08T04:12:38;101742.06;;;14.49;100.00
25759;BME280;13604;52.496;13.456;2023-09-08T04:15:04;101753.63;;;14.52;100.00
25759;BME280;13604;52.496;13.456;2023-09-08T04:17:29;101750.00;;;14.50;100.00
25759;BME280;13604;52.496;13.456;2023-09-08T04:19:54;101757.13;;;14.53;100.00
25759;BME280;13604;52.496;13.456;2023-09-08T04:22:20;101740.09;;;14.43;100.00
25759;BME280;13604;52.496;13.456;2023-09-08T04:24:45;101729.38;;;14.39;100.00
25759;BME280;13604;52.496;13.456;2023-09-08T04:27:10;101745.59;;;14.49;100.00
25759;BME280;13604;52.496;13.456;2023-09-08T04:29:36;101720.41;;;14.33;100.00
25759;BME280;13604;52.496;13.456;2023-09-08T04:32:01;101747.28;;;14.47;100.00
25759;BME280;13604;52.496;13.456;2023-09-08T04:34:34;101756.97;;;14.50;100.00
25759;BME280;13604;52.496;13.456;2023-09-08T04:36:59;101751.94;;;14.54;100.00
25759;BME280;13604;52.496;13.456;2023-09-08T04:39:25;101744.75;;;14.50;100.00
25759;BME280;13604;52.496;13.456;2023-09-08T04:41:50;101731.41;;;14.44;100.00
25759;BME280;13604;52.496;13.456;2023-09-08T04:44:15;101750.34;;;14.58;100.00
25759;BME280;13604;52.496;13.456;2023-09-08T04:46:41;101738.69;;;14.51;100.00
25759;BME280;13604;52.496;13.456;2023-09-08T04:49:06;101748.06;;;14.64;100.00
25759;BME280;13604;52.496;13.456;2023-09-08T04:51:31;101744.97;;;14.55;100.00
25759;BME280;13604;52.496;13.456;2023-09-08T04:53:57;101762.25;;;14.69;100.00
25759;BME280;13604;52.496;13.456;2023-09-08T04:56:22;101749.91;;;14.67;100.00
25759;BME280;13604;52.496;13.456;2023-09-08T04:58:47;101734.94;;;14.64;100.00
25759;BME280;13604;52.496;13.456;2023-09-08T05:01:12;101726.63;;;14.55;100.00
25759;BME280;13604;52.496;13.456;2023-09-08T05:03:38;101753.81;;;14.77;100.00
25759;BME280;13604;52.496;13.456;2023-09-08T05:06:03;101754.66;;;14.76;100.00
25759;BME280;13604;52.496;13.456;2023-09-08T05:08:28;101766.25;;;14.81;100.00
25759;BME280;13604;52.496;13.456;2023-09-08T05:10:54;101759.13;;;14.78;100.00
25759;BME280;13604;52.496;13.456;2023-09-08T05:13:19;101754.25;;;14.86;100.00
25759;BME280;13604;52.496;13.456;2023-09-08T05:15:45;101755.34;;;14.91;100.00
25759;BME280;13604;52.496;13.456;2023-09-08T05:18:13;101763.41;;;14.96;100.00
25759;BME280;13604;52.496;13.456;2023-09-08T05:20:38;101740.47;;;14.91;100.00
25759;BME280;13604;52.496;13.456;2023-09-08T05:23:04;101747.09;;;15.03;100.00
25759;BME280;13604;52.496;13.456;2023-09-08T05:25:29;101756.53;;;15.19;100.00
25759;BME280;13604;52.496;13.456;2023-09-08T05:27:54;101770.88;;;15.27;100.00
25759;BME280;13604;52.496;13.456;2023-09-08T05:30:20;101728.31;;;15.13;100.00
25759;BME280;13604;52.496;13.456;2023-09-08T05:32:45;101733.78;;;15.19;100.00
25759;BME280;13604;52.496;13.456;2023-09-08T05:35:10;101741.47;;;15.36;100.00
25759;BME280;13604;52.496;13.456;2023-09-08T05:37:36;101736.88;;;15.30;100.00
25759;BME280;13604;52.496;13.456;2023-09-08T05:40:01;101756.97;;;15.51;100.00
25759;BME280;13604;52.496;13.456;2023-09-08T05:42:26;101757.09;;;15.54;100.00
25759;BME280;13604;52.496;13.456;2023-09-08T05:44:51;101763.69;;;15.65;100.00
25759;BME280;13604;52.496;13.456;2023-09-08T05:47:19;101766.56;;;15.71;100.00
25759;BME280;13604;52.496;13.456;2023-09-08T05:49:44;101748.41;;;15.76;100.00
25759;BME280;13604;52.496;13.456;2023-09-08T05:52:10;101765.66;;;15.92;100.00
25759;BME280;13604;52.496;13.456;2023-09-08T05:54:35;101769.53;;;16.01;100.00
25759;BME280;13604;52.496;13.456;2023-09-08T05:57:01;101744.75;;;15.95;100.00
25759;BME280;13604;52.496;13.456;2023-09-08T05:59:26;101749.38;;;16.00;100.00
25759;BME280;13604;52.496;13.456;2023-09-08T06:01:51;101750.38;;;16.04;98.83
25759;BME280;13604;52.496;13.456;2023-09-08T06:04:16;101763.28;;;16.21;98.29
25759;BME280;13604;52.496;13.456;2023-09-08T06:06:42;101748.31;;;16.19;97.60
25759;BME280;13604;52.496;13.456;2023-09-08T06:09:07;101747.56;;;16.22;96.06
25759;BME280;13604;52.496;13.456;2023-09-08T06:11:34;101772.84;;;16.43;95.54
25759;BME280;13604;52.496;13.456;2023-09-08T06:13:59;101743.66;;;16.35;95.39
25759;BME280;13604;52.496;13.456;2023-09-08T06:16:25;101769.69;;;16.51;95.70
25759;BME280;13604;52.496;13.456;2023-09-08T06:18:51;101769.00;;;16.57;95.22
25759;BME280;13604;52.496;13.456;2023-09-08T06:21:16;101726.38;;;16.42;95.04
25759;BME280;13604;52.496;13.456;2023-09-08T06:23:41;101769.41;;;16.68;94.60
25759;BME280;13604;52.496;13.456;2023-09-08T06:26:07;101734.13;;;16.63;94.30
25759;BME280;13604;52.496;13.456;2023-09-08T06:28:32;101738.91;;;16.73;93.72
25759;BME280;13604;52.496;13.456;2023-09-08T06:30:58;101748.09;;;16.84;93.49
25759;BME280;13604;52.496;13.456;2023-09-08T06:33:23;101734.88;;;16.83;93.50
25759;BME280;13604;52.496;13.456;2023-09-08T06:35:48;101754.97;;;17.05;93.47
25759;BME280;13604;52.496;13.456;2023-09-08T06:38:14;101734.28;;;16.90;92.53
25759;BME280;13604;52.496;13.456;2023-09-08T06:40:39;101745.59;;;17.13;92.48
25759;BME280;13604;52.496;13.456;2023-09-08T06:43:05;101734.28;;;17.16;91.31
25759;BME280;13604;52.496;13.456;2023-09-08T06:45:30;101759.00;;;17.74;90.28
25759;BME280;13604;52.496;13.456;2023-09-08T06:47:55;101748.22;;;18.22;87.13
25759;BME280;13604;52.496;13.456;2023-09-08T06:50:21;101731.88;;;18.34;85.94
25759;BME280;13604;52.496;13.456;2023-09-08T06:52:48;101758.84;;;18.86;84.44
25759;BME280;13604;52.496;13.456;2023-09-08T06:55:13;101744.03;;;18.91;82.52
25759;BME280;13604;52.496;13.456;2023-09-08T06:57:41;101725.38;;;18.85;81.64
25759;BME280;13604;52.496;13.456;2023-09-08T07:00:07;101735.31;;;18.93;81.89
25759;BME280;13604;52.496;13.456;2023-09-08T07:02:32;101734.47;;;18.96;83.64
25759;BME280;13604;52.496;13.456;2023-09-08T07:04:57;101734.19;;;19.19;81.67
25759;BME280;13604;52.496;13.456;2023-09-08T07:07:23;101750.38;;;19.67;78.40
25759;BME280;13604;52.496;13.456;2023-09-08T07:09:48;101745.66;;;19.91;77.47
25759;BME280;13604;52.496;13.456;2023-09-08T07:12:13;101724.66;;;19.97;75.96
25759;BME280;13604;52.496;13.456;2023-09-08T07:14:39;101756.22;;;20.73;74.45
25759;BME280;13604;52.496;13.456;2023-09-08T07:17:04;101748.50;;;20.85;73.60
25759;BME280;13604;52.496;13.456;2023-09-08T07:19:29;101729.06;;;21.33;71.03
25759;BME280;13604;52.496;13.456;2023-09-08T07:21:55;101747.94;;;22.13;69.84
25759;BME280;13604;52.496;13.456;2023-09-08T07:24:20;101721.94;;;22.55;66.62
25759;BME280;13604;52.496;13.456;2023-09-08T07:26:46;101755.31;;;23.14;64.87
25759;BME280;13604;52.496;13.456;2023-09-08T07:29:11;101753.03;;;23.54;62.07
25759;BME280;13604;52.496;13.456;2023-09-08T07:31:37;101748.75;;;23.78;59.59
25759;BME280;13604;52.496;13.456;2023-09-08T07:34:03;101755.16;;;24.09;59.54
25759;BME280;13604;52.496;13.456;2023-09-08T07:41:19;101758.78;;;24.23;nan
25759;BME280;13604;52.496;13.456;2023-09-08T07:43:44;101760.72;;;24.57;nan
25759;BME280;13604;52.496;13.456;2023-09-08T07:46:10;101755.34;;;24.49;nan
25759;BME280;13604;52.496;13.456;2023-09-08T07:48:36;101729.72;;;24.74;nan
25759;BME280;13604;52.496;13.456;2023-09-08T07:51:01;101755.34;;;24.54;nan
25759;BME280;13604;52.496;13.456;2023-09-08T07:53:27;101743.88;;;24.56;nan
25759;BME280;13604;52.496;13.456;2023-09-08T07:55:52;101751.13;;;25.51;nan
25759;BME280;13604;52.496;13.456;2023-09-08T08:00:43;101762.53;;;26.26;nan
25759;BME280;13604;52.496;13.456;2023-09-08T08:03:08;101770.31;;;26.81;nan
25759;BME280;13604;52.496;13.456;2023-09-08T08:05:34;101759.31;;;27.29;nan
25759;BME280;13604;52.496;13.456;2023-09-08T08:07:59;101761.63;;;27.65;nan
25759;BME280;13604;52.496;13.456;2023-09-08T08:10:24;101758.94;;;27.68;nan
25759;BME280;13604;52.496;13.456;2023-09-08T08:12:50;101754.41;;;27.75;nan
25759;BME280;13604;52.496;13.456;2023-09-08T08:15:15;101772.72;;;28.19;nan
25759;BME280;13604;52.496;13.456;2023-09-08T08:17:41;101771.72;;;28.26;nan
25759;BME280;13604;52.496;13.456;2023-09-08T08:20:07;101752.00;;;28.97;nan
25759;BME280;13604;52.496;13.456;2023-09-08T08:22:36;101760.13;;;30.00;nan
25759;BME280;13604;52.496;13.456;2023-09-08T08:25:02;101761.78;;;30.06;nan
25759;BME280;13604;52.496;13.456;2023-09-08T08:27:28;101756.03;;;28.69;nan
25759;BME280;13604;52.496;13.456;2023-09-08T08:29:53;101758.28;;;29.52;nan
25759;BME280;13604;52.496;13.456;2023-09-08T08:32:19;101731.19;;;30.55;nan
25759;BME280;13604;52.496;13.456;2023-09-08T08:34:44;101751.44;;;31.47;nan
25759;BME280;13604;52.496;13.456;2023-09-08T08:37:10;101751.16;;;31.22;nan
25759;BME280;13604;52.496;13.456;2023-09-08T08:39:35;101753.81;;;31.92;nan
25759;BME280;13604;52.496;13.456;2023-09-08T08:42:09;101753.00;;;32.51;nan
25759;BME280;13604;52.496;13.456;2023-09-08T08:44:34;101753.53;;;32.34;nan
25759;BME280;13604;52.496;13.456;2023-09-08T08:47:02;101726.22;;;32.45;nan
25759;BME280;13604;52.496;13.456;2023-09-08T08:49:28;101740.34;;;33.63;nan
25759;BME280;13604;52.496;13.456;2023-09-08T08:51:57;101739.09;;;33.99;nan
25759;BME280;13604;52.496;13.456;2023-09-08T08:54:24;101754.50;;;34.44;nan
25759;BME280;13604;52.496;13.456;2023-09-08T08:56:50;101733.94;;;34.86;nan
25759;BME280;13604;52.496;13.456;2023-09-08T08:59:15;101731.25;;;34.15;nan
25759;BME280;13604;52.496;13.456;2023-09-08T09:02:36;101742.03;;;33.41;31.39
25759;BME280;13604;52.496;13.456;2023-09-08T09:05:01;101727.97;;;32.18;33.33
25759;BME280;13604;52.496;13.456;2023-09-08T09:07:27;101748.22;;;33.17;33.35
25759;BME280;13604;52.496;13.456;2023-09-08T09:09:53;101743.44;;;34.03;31.34
25759;BME280;13604;52.496;13.456;2023-09-08T09:12:19;101748.44;;;34.61;29.75
25759;BME280;13604;52.496;13.456;2023-09-08T09:14:46;101727.78;;;35.47;30.17
25759;BME280;13604;52.496;13.456;2023-09-08T09:17:14;101737.28;;;36.55;28.97
25759;BME280;13604;52.496;13.456;2023-09-08T09:19:39;101737.22;;;37.47;27.33
25759;BME280;13604;52.496;13.456;2023-09-08T09:22:05;101745.28;;;37.31;26.19
25759;BME280;13604;52.496;13.456;2023-09-08T09:24:35;101753.25;;;37.87;25.81
25759;BME280;13604;52.496;13.456;2023-09-08T09:27:06;101742.78;;;38.12;25.83
25759;BME280;13604;52.496;13.456;2023-09-08T09:29:33;101740.09;;;39.08;25.27
25759;BME280;13604;52.496;13.456;2023-09-08T09:32:07;101727.03;;;38.83;24.40
25759;BME280;13604;52.496;13.456;2023-09-08T09:34:35;101733.66;;;39.70;23.86
25759;BME280;13604;52.496;13.456;2023-09-08T09:37:01;101724.38;;;38.97;24.03
25759;BME280;13604;52.496;13.456;2023-09-08T09:39:27;101736.66;;;37.41;25.58
25759;BME280;13604;52.496;13.456;2023-09-08T09:41:56;101728.34;;;37.26;26.29
25759;BME280;13604;52.496;13.456;2023-09-08T09:44:22;101730.25;;;38.10;24.74
25759;BME280;13604;52.496;13.456;2023-09-08T09:46:50;101721.72;;;39.42;24.13
25759;BME280;13604;52.496;13.456;2023-09-08T09:49:16;101736.38;;;38.63;24.63
25759;BME280;13604;52.496;13.456;2023-09-08T09:51:53;101731.53;;;38.68;24.63
25759;BME280;13604;52.496;13.456;2023-09-08T09:54:19;101728.72;;;39.32;24.31
25759;BME280;13604;52.496;13.456;2023-09-08T09:56:45;101723.97;;;38.73;24.22
25759;BME280;13604;52.496;13.456;2023-09-08T09:59:12;101727.34;;;39.98;23.91
25759;BME280;13604;52.496;13.456;2023-09-08T10:01:39;101717.13;;;39.87;23.20
25759;BME280;13604;52.496;13.456;2023-09-08T10:04:05;101708.13;;;38.96;23.68
25759;BME280;13604;52.496;13.456;2023-09-08T10:06:32;101725.78;;;39.80;23.27
25759;BME280;13604;52.496;13.456;2023-09-08T10:09:03;101709.03;;;40.98;22.97
25759;BME280;13604;52.496;13.456;2023-09-08T10:11:49;101709.56;;;40.76;22.31
25759;BME280;13604;52.496;13.456;2023-09-08T10:14:15;101718.56;;;41.18;21.59
25759;BME280;13604;52.496;13.456;2023-09-08T10:16:43;101711.94;;;40.67;21.35
25759;BME280;13604;52.496;13.456;2023-09-08T10:19:10;101705.75;;;41.59;21.42
25759;BME280;13604;52.496;13.456;2023-09-08T10:21:46;101711.91;;;42.62;20.38
25759;BME280;13604;52.496;13.456;2023-09-08T10:26:53;101705.91;;;43.63;19.73
25759;BME280;13604;52.496;13.456;2023-09-08T10:29:22;101689.69;;;43.60;18.72
25759;BME280;13604;52.496;13.456;2023-09-08T10:31:48;101705.19;;;43.72;18.49
25759;BME280;13604;52.496;13.456;2023-09-08T10:34:13;101708.31;;;42.61;19.33
25759;BME280;13604;52.496;13.456;2023-09-08T10:36:39;101689.41;;;42.94;19.71
25759;BME280;13604;52.496;13.456;2023-09-08T10:39:30;101697.44;;;40.94;20.37
25759;BME280;13604;52.496;13.456;2023-09-08T10:44:55;101696.84;;;42.43;19.87
25759;BME280;13604;52.496;13.456;2023-09-08T10:47:25;101692.44;;;42.54;19.67
25759;BME280;13604;52.496;13.456;2023-09-08T10:49:51;101693.91;;;42.95;20.50
25759;BME280;13604;52.496;13.456;2023-09-08T10:52:23;101693.91;;;45.08;18.24
25759;BME280;13604;52.496;13.456;2023-09-08T10:54:51;101704.56;;;45.96;17.85
25759;BME280;13604;52.496;13.456;2023-09-08T10:57:20;101698.22;;;46.65;16.95
25759;BME280;13604;52.496;13.456;2023-09-08T11:00:00;101684.00;;;45.17;17.41
25759;BME280;13604;52.496;13.456;2023-09-08T11:02:40;101662.88;;;44.96;16.97
25759;BME280;13604;52.496;13.456;2023-09-08T11:05:13;101687.84;;;43.72;18.21
25759;BME280;13604;52.496;13.456;2023-09-08T11:07:41;101680.53;;;43.84;18.57
25759;BME280;13604;52.496;13.456;2023-09-08T11:10:07;101678.31;;;44.44;17.77
25759;BME280;13604;52.496;13.456;2023-09-08T11:12:32;101670.41;;;45.15;17.13
25759;BME280;13604;52.496;13.456;2023-09-08T11:14:59;101689.03;;;46.35;16.92
25759;BME280;13604;52.496;13.456;2023-09-08T11:17:31;101689.31;;;46.42;16.69
25759;BME280;13604;52.496;13.456;2023-09-08T11:19:56;101687.69;;;47.47;15.91
25759;BME280;13604;52.496;13.456;2023-09-08T11:22:23;101691.53;;;48.29;15.83
25759;BME280;13604;52.496;13.456;2023-09-08T11:24:49;101674.13;;;48.46;14.75
25759;BME280;13604;52.496;13.456;2023-09-08T11:27:15;101685.22;;;47.44;14.99
25759;BME280;13604;52.496;13.456;2023-09-08T11:29:40;101680.59;;;48.09;15.56
25759;BME280;13604;52.496;13.456;2023-09-08T11:32:07;101691.94;;;46.43;15.95
25759;BME280;13604;52.496;13.456;2023-09-08T11:34:34;101677.47;;;47.57;14.98
25759;BME280;13604;52.496;13.456;2023-09-08T11:36:59;101660.47;;;48.63;15.08
25759;BME280;13604;52.496;13.456;2023-09-08T11:39:25;101663.44;;;48.16;14.58
25759;BME280;13604;52.496;13.456;2023-09-08T11:41:51;101653.06;;;47.34;15.78
25759;BME280;13604;52.496;13.456;2023-09-08T11:44:18;101664.09;;;45.46;16.61
25759;BME280;13604;52.496;13.456;2023-09-08T11:46:43;101669.06;;;46.72;16.49
25759;BME280;13604;52.496;13.456;2023-09-08T11:49:08;101659.88;;;48.05;15.41
25759;BME280;13604;52.496;13.456;2023-09-08T11:51:34;101671.91;;;49.30;14.40
25759;BME280;13604;52.496;13.456;2023-09-08T11:53:59;101654.66;;;49.45;13.81
25759;BME280;13604;52.496;13.456;2023-09-08T11:56:25;101663.66;;;49.39;13.75
25759;BME280;13604;52.496;13.456;2023-09-08T11:58:51;101654.47;;;49.38;13.42
25759;BME280;13604;52.496;13.456;2023-09-08T12:01:17;101653.81;;;48.20;14.01
25759;BME280;13604;52.496;13.456;2023-09-08T12:03:57;101657.41;;;49.10;14.43
25759;BME280;13604;52.496;13.456;2023-09-08T12:06:26;101636.84;;;48.87;14.02
25759;BME280;13604;52.496;13.456;2023-09-08T12:08:53;101636.34;;;49.44;13.96
25759;BME280;13604;52.496;13.456;2023-09-08T12:11:19;101633.31;;;48.40;13.89
25759;BME280;13604;52.496;13.456;2023-09-08T12:13:44;101637.22;;;48.92;13.96
25759;BME280;13604;52.496;13.456;2023-09-08T12:16:20;101632.97;;;48.25;14.77
25759;BME280;13604;52.496;13.456;2023-09-08T12:18:45;101629.25;;;47.71;14.69
25759;BME280;13604;52.496;13.456;2023-09-08T12:21:11;101621.50;;;46.80;15.36
25759;BME280;13604;52.496;13.456;2023-09-08T12:23:47;101628.19;;;46.97;15.48
25759;BME280;13604;52.496;13.456;2023-09-08T12:26:14;101628.06;;;45.28;16.40
25759;BME280;13604;52.496;13.456;2023-09-08T12:28:42;101627.19;;;47.26;15.97
25759;BME280;13604;52.496;13.456;2023-09-08T12:31:08;101599.28;;;45.63;15.77
25759;BME280;13604;52.496;13.456;2023-09-08T12:33:33;101624.53;;;46.38;15.89
25759;BME280;13604;52.496;13.456;2023-09-08T12:35:59;101621.19;;;46.83;15.10
25759;BME280;13604;52.496;13.456;2023-09-08T12:38:30;101610.44;;;47.09;15.94
25759;BME280;13604;52.496;13.456;2023-09-08T12:40:57;101610.81;;;49.15;14.35
25759;BME280;13604;52.496;13.456;2023-09-08T12:43:22;101595.22;;;48.88;13.58
25759;BME280;13604;52.496;13.456;2023-09-08T12:45:47;101600.66;;;49.59;13.66
25759;BME280;13604;52.496;13.456;2023-09-08T12:48:12;101616.78;;;50.22;13.07